Accueil
METAR-TAF:

METAR-TAF

Aéroports :

Aéroport international de Bandar Seri Begawan

Brunei, Brunei

latitude: 04-56N, longitude: 114-56E, altitude: 22 m

Observation

Le bulletin a été fait il y a 33 minutes, à 10:00 UTC
Vent 7 kt de nord
Température 29°C
Humidité 79%
Pression 1011 hPa
Visibilité: 9000 m
Quelques nuages à une hauteur de 1500 ft
Nuages fragmentés à une hauteur de 30000 ft

METAR: WBSB 211000Z 35007KT 9000 FEW015 BKN300 29/25 Q1011 NOSIG

Heure: 18:33 (10:33 UTC)

Prévision

Le bulletin a été fait il y a 5 heures et 43 minutes, à 04:50 UTC
Prévision valable du 21 à 06 UTC au 22 à 12 UTC
Vent 8 kt de nord/nord-est
Visibilité 10 km ou plus
Quelques nuages à une hauteur de 1700 ft
Evoluant progressivement
du 21 à 12 UTC au 21 à 14 UTC
Vent 5 kt de est/nord-est
Quelques nuages à une hauteur de 1500 ft

TAF: WBSB 210450Z 2106/2212 02008KT 9999 FEW017 BECMG 2112/2114 06005KT FEW015

Observations et prévisions météorologiques de plus de 4000 aéroports (messages METAR et TAF).

Les stations disponibles sont représentées par des disques jaunes et rouges sur la carte.

Passer la souris dessus pour voir le nom de la station.

Cliquer dessus pour voir les observations et prévisions météorologiques.

Pour changer de carte: cliquez sur les boutons verts avec une croix noire pour zoomer, sur le bouton vert avec un tiret pour effectuer un zoom arrière, ou sur les flèches vertes pour les cartes adjacentes.


METAR-TAF: